Weather at Sjenica Airport [CLOSED]

Public forecast

Using degrees Celsius for public forecast. Weather courtesy of forecast.io.

Closest aviation weather report (METAR) to Sjenica Airport

Closest report is Morava Airport, 40.1 nm (74.3 km) NE.

2024/05/25 05:30 (retrieved 21 minutes ago)

LYKV 250530Z VRB01KT 0200 R31/0600N R13/0400N FG VV002 12/12 Q1019 BECMG 0600 BKN003

Closest aviation forecast (TAF) to Sjenica Airport

Forecast is more than 6 hours old.

Closest forecast is Kukës International Airport, 76.1 nm (140.9 km) SSE.

2024/05/24 18:00 Ammendment (retrieved 12 hours ago)

TAF AMD LAKU 241900Z 2418/2518 CNL